Time;durP1;ratioP1;P1;durP2;ratioP2;P2;SDS_P1;SDS_P2;PMS_P1;PMS_P2;Temp;Humidity;BMP_temperature;BMP_pressure;BME280_temperature;BME280_humidity;BME280_pressure;Samples;Min_cycle;Max_cycle;Signal;HPM_P1;HPM_P2
2022/03/14 00:02:02;;;;;;;13.35;9.50;;;5.00;39.40;;;;;;5054446;28;20194;-62
2022/03/14 00:04:29;;;;;;;13.30;8.60;;;5.00;39.40;;;;;;5049700;28;20222;-62
2022/03/14 00:06:59;;;;;;;13.20;8.35;;;4.90;39.20;;;;;;5050938;28;20480;-62
2022/03/14 00:09:27;;;;;;;11.98;9.18;;;4.80;38.30;;;;;;5052806;28;20246;-63
2022/03/14 00:11:54;;;;;;;13.38;7.55;;;4.70;38.20;;;;;;5051692;28;20191;-62
2022/03/14 00:14:25;;;;;;;12.90;8.70;;;4.60;38.70;;;;;;5050736;28;20190;-63
2022/03/14 00:16:52;;;;;;;12.88;8.57;;;4.40;39.00;;;;;;5047872;28;20197;-62
2022/03/14 00:19:20;;;;;;;15.13;9.32;;;4.30;38.40;;;;;;5050903;28;20195;-62
2022/03/14 00:21:49;;;;;;;12.82;8.50;;;4.20;38.60;;;;;;5053340;28;20221;-62
2022/03/14 00:24:17;;;;;;;12.55;8.57;;;3.90;39.10;;;;;;5051123;28;20257;-62
2022/03/14 00:26:46;;;;;;;15.35;9.35;;;3.90;39.50;;;;;;5054024;28;20199;-62
2022/03/14 00:29:14;;;;;;;15.48;9.30;;;3.80;40.00;;;;;;5054846;28;20186;-63
2022/03/14 00:31:42;;;;;;;17.15;9.30;;;3.80;40.60;;;;;;5048644;28;20191;-62
2022/03/14 00:34:09;;;;;;;13.15;8.48;;;3.80;41.10;;;;;;5058792;28;20222;-63
2022/03/14 00:36:36;;;;;;;15.02;8.93;;;3.80;41.90;;;;;;5060765;28;20194;-63
2022/03/14 00:39:04;;;;;;;13.20;9.40;;;3.80;42.20;;;;;;5061466;28;20639;-65
2022/03/14 00:41:32;;;;;;;12.23;8.13;;;3.80;42.20;;;;;;5058015;28;20198;-63
2022/03/14 00:43:59;;;;;;;14.13;9.30;;;3.70;42.40;;;;;;5057896;28;20688;-63
2022/03/14 00:46:26;;;;;;;13.23;8.73;;;3.80;42.70;;;;;;5058977;28;20254;-63
2022/03/14 00:48:53;;;;;;;14.55;8.75;;;3.80;42.90;;;;;;5059065;28;20221;-63
2022/03/14 00:51:20;;;;;;;16.88;10.73;;;3.70;42.70;;;;;;5058709;28;20240;-63
2022/03/14 00:53:47;;;;;;;18.98;10.02;;;3.80;43.40;;;;;;5060035;28;20561;-63
2022/03/14 00:56:14;;;;;;;17.58;9.93;;;3.80;42.90;;;;;;5057801;28;20221;-63
2022/03/14 00:58:43;;;;;;;16.00;9.60;;;3.90;43.20;;;;;;5055566;28;20667;-63
2022/03/14 01:01:10;;;;;;;14.00;8.10;;;3.90;42.80;;;;;;5053734;28;20286;-62
2022/03/14 01:03:37;;;;;;;11.48;8.25;;;3.90;42.80;;;;;;5058263;28;20664;-62
2022/03/14 01:06:04;;;;;;;15.23;9.10;;;3.90;43.00;;;;;;5055758;28;20243;-63
2022/03/14 01:08:31;;;;;;;14.52;8.30;;;3.90;43.30;;;;;;5058440;28;20190;-63
2022/03/14 01:10:58;;;;;;;15.40;8.13;;;4.10;43.60;;;;;;5057698;28;20186;-63
2022/03/14 01:13:25;;;;;;;13.05;8.85;;;4.20;43.40;;;;;;5056693;28;20258;-63
2022/03/14 01:15:54;;;;;;;13.32;7.93;;;4.30;43.20;;;;;;5055602;28;20190;-62
2022/03/14 01:18:21;;;;;;;14.88;8.60;;;4.40;43.10;;;;;;5057524;28;20202;-63
2022/03/14 01:20:49;;;;;;;13.93;9.93;;;4.50;43.40;;;;;;5056891;28;20194;-63
2022/03/14 01:23:16;;;;;;;13.75;8.90;;;4.50;43.00;;;;;;5056627;28;20205;-63
2022/03/14 01:25:45;;;;;;;13.15;9.15;;;4.60;43.40;;;;;;5054645;28;20739;-63
2022/03/14 01:28:12;;;;;;;14.45;9.50;;;4.70;43.50;;;;;;5058184;28;20199;-63
2022/03/14 01:30:43;;;;;;;14.18;8.07;;;4.70;43.20;;;;;;5057129;28;20248;-65
2022/03/14 01:33:13;;;;;;;13.57;9.23;;;4.70;42.80;;;;;;5056435;28;20669;-64
2022/03/14 01:35:41;;;;;;;19.23;9.05;;;4.70;42.20;;;;;;5054907;28;20202;-64
2022/03/14 01:38:08;;;;;;;13.82;8.40;;;4.80;42.00;;;;;;5054528;28;20194;-63
2022/03/14 01:40:36;;;;;;;10.98;8.23;;;4.90;42.10;;;;;;5055649;28;20644;-63
2022/03/14 01:43:03;;;;;;;11.30;7.80;;;4.90;42.70;;;;;;5055699;28;20190;-65
2022/03/14 01:45:30;;;;;;;15.80;7.35;;;4.90;42.80;;;;;;5055046;28;20268;-62
2022/03/14 01:47:57;;;;;;;14.60;8.13;;;4.90;42.50;;;;;;5056913;28;20213;-63
2022/03/14 01:50:26;;;;;;;11.93;8.00;;;4.90;42.40;;;;;;5055717;28;20206;-64
2022/03/14 01:52:53;;;;;;;12.73;8.55;;;4.90;42.70;;;;;;5056506;28;20186;-62
2022/03/14 01:55:20;;;;;;;13.77;9.38;;;5.00;42.70;;;;;;5055135;28;20191;-62
2022/03/14 01:57:47;;;;;;;10.90;8.20;;;5.00;42.60;;;;;;5056929;28;20205;-63
2022/03/14 02:00:15;;;;;;;12.05;8.90;;;5.10;43.40;;;;;;5054783;28;20194;-63
2022/03/14 02:02:42;;;;;;;15.27;9.55;;;5.10;43.50;;;;;;5053965;28;20563;-63
2022/03/14 02:05:10;;;;;;;16.08;8.80;;;5.10;43.10;;;;;;5053421;28;20225;-64
2022/03/14 02:07:39;;;;;;;12.50;8.52;;;5.10;44.30;;;;;;5055298;28;20205;-63
2022/03/14 02:10:07;;;;;;;10.90;8.70;;;5.10;45.00;;;;;;5052634;28;20206;-63
2022/03/14 02:12:34;;;;;;;12.93;8.65;;;5.00;44.40;;;;;;5053190;28;20595;-63
2022/03/14 02:15:01;;;;;;;12.02;8.68;;;5.00;44.50;;;;;;5052693;28;20530;-63
2022/03/14 02:17:28;;;;;;;12.90;8.82;;;4.90;44.60;;;;;;5053371;28;20248;-63
2022/03/14 02:19:59;;;;;;;12.60;7.15;;;5.00;44.00;;;;;;5054555;28;20551;-64
2022/03/14 02:22:26;;;;;;;9.85;7.40;;;5.00;43.90;;;;;;5052624;28;20190;-63
2022/03/14 02:24:54;;;;;;;11.57;7.72;;;5.00;43.50;;;;;;5051448;28;20280;-63
2022/03/14 02:27:23;;;;;;;10.73;7.00;;;5.10;43.70;;;;;;5051584;28;20195;-67
2022/03/14 02:29:50;;;;;;;11.88;7.57;;;5.10;43.70;;;;;;5051528;28;20221;-63
2022/03/14 02:32:17;;;;;;;13.68;7.25;;;5.20;43.90;;;;;;5055338;28;20244;-63
2022/03/14 02:34:44;;;;;;;10.05;7.80;;;5.20;43.60;;;;;;5048996;28;20196;-63
2022/03/14 02:37:16;;;;;;;9.77;7.22;;;5.30;43.80;;;;;;5062023;28;20200;-63
2022/03/14 02:39:44;;;;;;;9.95;6.57;;;5.30;44.00;;;;;;5067953;28;20190;-63
2022/03/14 02:42:11;;;;;;;12.60;7.57;;;5.30;43.80;;;;;;5069386;28;20296;-63
2022/03/14 02:44:43;;;;;;;9.15;6.10;;;5.40;43.80;;;;;;5063213;28;20217;-63
2022/03/14 02:47:11;;;;;;;11.63;5.95;;;5.60;43.60;;;;;;5066035;28;20186;-64
2022/03/14 02:49:38;;;;;;;9.90;6.20;;;5.70;43.30;;;;;;5064520;28;20197;-64
2022/03/14 02:52:05;;;;;;;8.30;6.15;;;5.90;43.10;;;;;;5065734;28;20292;-64
2022/03/14 02:54:34;;;;;;;10.45;6.40;;;6.10;42.80;;;;;;5064865;28;20658;-63
2022/03/14 02:57:01;;;;;;;8.80;5.32;;;6.20;42.50;;;;;;5062279;28;20198;-64
2022/03/14 02:59:28;;;;;;;10.35;6.70;;;6.40;42.70;;;;;;5052201;28;20190;-64
2022/03/14 03:01:55;;;;;;;9.23;5.65;;;6.50;43.90;;;;;;5054225;28;20230;-63
2022/03/14 03:04:22;;;;;;;10.05;6.43;;;6.70;44.40;;;;;;5063204;28;20198;-63
2022/03/14 03:06:49;;;;;;;12.25;7.15;;;6.90;45.00;;;;;;5064238;28;20635;-63
2022/03/14 03:09:17;;;;;;;12.77;8.05;;;7.10;45.90;;;;;;5060083;28;20248;-63
2022/03/14 03:11:45;;;;;;;9.73;7.45;;;7.30;46.40;;;;;;5055281;28;20201;-63
2022/03/14 03:14:14;;;;;;;11.77;8.68;;;7.50;46.90;;;;;;5054106;28;20660;-64
2022/03/14 03:16:42;;;;;;;13.20;8.93;;;7.70;47.50;;;;;;5060095;28;20202;-63
2022/03/14 03:19:09;;;;;;;15.93;9.55;;;7.80;47.90;;;;;;5058770;28;20190;-63
2022/03/14 03:21:39;;;;;;;16.45;10.45;;;7.90;48.80;;;;;;5059573;28;20641;-64
2022/03/14 03:24:08;;;;;;;16.40;10.52;;;8.00;49.90;;;;;;5055432;28;20202;-64
2022/03/14 03:26:38;;;;;;;16.90;9.02;;;8.20;50.00;;;;;;5055876;28;20316;-64
2022/03/14 03:29:06;;;;;;;14.07;9.82;;;8.30;50.60;;;;;;5057286;28;20731;-64
2022/03/14 03:31:34;;;;;;;14.13;9.65;;;8.40;50.30;;;;;;5058244;28;20636;-64
2022/03/14 03:34:01;;;;;;;17.90;11.82;;;8.50;51.30;;;;;;5056740;28;20230;-64
2022/03/14 03:36:28;;;;;;;19.33;11.45;;;8.50;52.10;;;;;;5057817;28;20201;-63
2022/03/14 03:38:56;;;;;;;17.38;10.80;;;8.60;53.00;;;;;;5058776;28;20198;-63
2022/03/14 03:41:23;;;;;;;20.40;13.52;;;8.60;53.00;;;;;;5057874;28;20256;-64
2022/03/14 03:43:50;;;;;;;14.75;10.85;;;8.70;53.20;;;;;;5058977;28;20189;-63
2022/03/14 03:46:19;;;;;;;15.68;11.35;;;8.70;53.20;;;;;;5053768;28;20222;-64
2022/03/14 03:48:46;;;;;;;19.85;12.52;;;8.70;53.10;;;;;;5057774;28;20194;-63
2022/03/14 03:51:13;;;;;;;19.38;12.38;;;8.80;53.40;;;;;;5055759;28;20564;-64
2022/03/14 03:53:40;;;;;;;13.90;10.90;;;8.80;54.30;;;;;;5057568;28;20194;-64
2022/03/14 03:56:07;;;;;;;18.52;12.20;;;8.70;54.70;;;;;;5052967;28;20206;-63
2022/03/14 03:58:34;;;;;;;18.50;12.23;;;8.80;55.30;;;;;;5056841;28;20641;-63
2022/03/14 04:01:02;;;;;;;16.10;11.45;;;8.80;56.10;;;;;;5057285;28;20194;-63
2022/03/14 04:03:34;;;;;;;15.88;10.30;;;8.80;55.60;;;;;;5056458;28;20194;-63
2022/03/14 04:06:02;;;;;;;16.63;10.25;;;8.80;56.80;;;;;;5055752;28;20217;-64
2022/03/14 04:08:32;;;;;;;18.85;11.88;;;8.80;56.30;;;;;;5059506;28;20251;-64
2022/03/14 04:10:59;;;;;;;20.60;12.40;;;8.80;56.60;;;;;;5059712;28;20205;-64
2022/03/14 04:13:26;;;;;;;20.08;11.65;;;8.80;57.40;;;;;;5058749;28;20194;-64
2022/03/14 04:15:54;;;;;;;14.77;10.35;;;8.90;56.70;;;;;;5058223;28;20190;-64
2022/03/14 04:18:24;;;;;;;14.15;10.80;;;8.90;56.80;;;;;;5058894;28;20217;-64
2022/03/14 04:20:53;;;;;;;16.80;12.07;;;8.90;56.80;;;;;;5054712;28;20277;-64
2022/03/14 04:23:21;;;;;;;16.83;12.50;;;8.90;58.30;;;;;;5054254;28;20244;-64
2022/03/14 04:25:48;;;;;;;17.25;11.27;;;8.80;58.20;;;;;;5052604;28;20230;-63
2022/03/14 04:28:16;;;;;;;16.15;11.25;;;8.80;57.90;;;;;;5059196;28;20672;-64
2022/03/14 04:30:43;;;;;;;15.27;12.02;;;8.80;57.90;;;;;;5057038;28;20675;-64
2022/03/14 04:33:10;;;;;;;18.48;10.05;;;8.80;57.90;;;;;;5059004;28;20222;-66
2022/03/14 04:35:37;;;;;;;16.60;12.07;;;8.80;58.00;;;;;;5056635;28;20685;-64
2022/03/14 04:38:07;;;;;;;15.63;10.90;;;8.80;59.30;;;;;;5058613;28;20197;-63
2022/03/14 04:40:34;;;;;;;15.80;10.00;;;8.80;58.60;;;;;;5056556;28;20198;-63
2022/03/14 04:43:04;;;;;;;16.20;11.07;;;8.80;58.50;;;;;;5057449;28;20208;-64
2022/03/14 04:45:32;;;;;;;14.88;9.00;;;8.80;58.30;;;;;;5055531;28;20863;-67
2022/03/14 04:47:59;;;;;;;10.88;8.23;;;8.70;59.00;;;;;;5054121;28;20205;-64
2022/03/14 04:50:26;;;;;;;11.18;7.53;;;8.70;58.60;;;;;;5056515;28;20217;-63
2022/03/14 04:52:54;;;;;;;9.00;6.28;;;8.70;58.80;;;;;;5053697;28;20201;-64
2022/03/14 04:55:22;;;;;;;11.75;6.72;;;8.70;58.30;;;;;;5050308;28;20187;-64
2022/03/14 04:57:49;;;;;;;10.18;6.53;;;8.80;58.20;;;;;;5050220;28;20202;-64
2022/03/14 05:00:17;;;;;;;9.75;6.85;;;8.80;58.30;;;;;;5056719;28;20285;-63
2022/03/14 05:02:44;;;;;;;8.50;5.00;;;8.80;58.20;;;;;;5071051;28;20198;-64
2022/03/14 05:05:12;;;;;;;9.02;4.88;;;8.70;58.20;;;;;;5066355;28;20248;-63
2022/03/14 05:07:39;;;;;;;7.40;5.30;;;8.70;57.90;;;;;;5069863;28;20201;-70
2022/03/14 05:10:07;;;;;;;7.60;5.57;;;8.80;58.10;;;;;;5068403;28;20201;-64
2022/03/14 05:12:36;;;;;;;7.47;5.10;;;8.70;57.70;;;;;;5069187;28;20254;-63
2022/03/14 05:15:03;;;;;;;6.45;4.32;;;8.70;57.60;;;;;;5061228;28;20549;-64
2022/03/14 05:17:31;;;;;;;6.18;4.80;;;8.80;57.60;;;;;;5068405;28;20587;-64
2022/03/14 05:19:58;;;;;;;7.85;4.57;;;8.70;57.50;;;;;;5067923;28;20198;-65
2022/03/14 05:22:25;;;;;;;5.25;3.83;;;8.70;57.50;;;;;;5061981;28;20201;-64
2022/03/14 05:24:52;;;;;;;4.63;3.47;;;8.70;57.60;;;;;;5058895;28;20195;-63
2022/03/14 05:27:21;;;;;;;6.93;3.50;;;8.70;57.60;;;;;;5063439;28;20226;-64
2022/03/14 05:29:49;;;;;;;4.80;3.15;;;8.70;57.20;;;;;;5058766;28;20551;-64
2022/03/14 05:32:16;;;;;;;5.80;3.38;;;8.70;56.80;;;;;;5061365;28;20191;-63
2022/03/14 05:35:00;;;;;;;5.80;4.07;;;8.70;56.90;;;;;;5057777;28;20688;-65
2022/03/14 05:37:27;;;;;;;5.60;3.38;;;8.70;57.20;;;;;;5058510;28;20550;-64
2022/03/14 05:39:54;;;;;;;6.43;4.97;;;8.70;57.90;;;;;;5057220;28;20197;-63
2022/03/14 05:42:21;;;;;;;8.63;4.50;;;8.70;57.50;;;;;;5061035;28;20206;-63
2022/03/14 05:45:10;;;;;;;6.00;4.00;;;8.70;57.60;;;;;;5053341;28;20633;-64
2022/03/14 05:47:37;;;;;;;7.75;4.40;;;8.70;57.80;;;;;;5048441;28;20191;-63
2022/03/14 05:50:04;;;;;;;8.85;5.70;;;8.70;57.90;;;;;;5055588;28;20289;-63
2022/03/14 05:52:36;;;;;;;7.28;4.88;;;8.70;57.90;;;;;;5052328;28;20202;-63
2022/03/14 05:55:03;;;;;;;7.13;5.10;;;8.70;58.30;;;;;;5052915;28;20198;-63
2022/03/14 05:57:30;;;;;;;6.65;5.00;;;8.70;58.40;;;;;;5056758;28;20202;-63
2022/03/14 05:59:57;;;;;;;6.80;5.05;;;8.70;58.30;;;;;;5054350;28;20641;-63
2022/03/14 06:02:26;;;;;;;6.30;4.60;;;8.70;58.30;;;;;;5054998;28;20202;-63
2022/03/14 06:04:55;;;;;;;8.18;5.30;;;8.80;58.30;;;;;;5053466;28;20187;-67
2022/03/14 06:07:27;;;;;;;6.25;4.82;;;8.80;57.90;;;;;;5049477;28;20569;-63
2022/03/14 06:09:54;;;;;;;8.77;5.90;;;8.90;57.70;;;;;;5052411;28;20550;-64
2022/03/14 06:12:25;;;;;;;9.73;6.93;;;9.00;57.60;;;;;;5055618;28;20190;-63
2022/03/14 06:14:53;;;;;;;11.25;6.85;;;9.10;57.70;;;;;;5049396;28;20193;-63
2022/03/14 06:17:21;;;;;;;10.60;6.25;;;9.10;57.60;;;;;;5051702;28;20182;-64
2022/03/14 06:19:49;;;;;;;9.18;6.70;;;9.20;57.50;;;;;;5052874;28;20222;-63
2022/03/14 06:22:16;;;;;;;12.30;6.35;;;9.20;57.50;;;;;;5055441;28;20225;-63
2022/03/14 06:24:47;;;;;;;9.63;6.65;;;9.30;57.20;;;;;;5049080;28;20232;-63
2022/03/14 06:27:15;;;;;;;9.75;7.40;;;9.40;57.10;;;;;;5052971;28;20313;-63
2022/03/14 06:29:42;;;;;;;15.43;9.00;;;9.40;56.80;;;;;;5049848;28;20190;-64
2022/03/14 06:32:09;;;;;;;8.43;6.75;;;9.50;56.80;;;;;;5056446;28;20587;-63
2022/03/14 06:34:37;;;;;;;9.80;6.43;;;9.60;56.80;;;;;;5056032;28;20190;-65
2022/03/14 06:37:07;;;;;;;7.57;5.82;;;9.80;56.60;;;;;;5051325;28;20195;-63
2022/03/14 06:39:35;;;;;;;6.65;4.90;;;9.80;56.30;;;;;;5053953;28;20199;-64
2022/03/14 06:42:02;;;;;;;6.82;5.00;;;10.10;55.10;;;;;;5051681;28;20191;-63
2022/03/14 06:44:29;;;;;;;5.50;3.67;;;10.30;55.10;;;;;;5050901;28;21190;-63
2022/03/14 06:46:56;;;;;;;6.55;3.90;;;10.50;54.40;;;;;;5051909;28;20253;-64
2022/03/14 06:49:24;;;;;;;4.07;2.67;;;10.80;53.90;;;;;;5054648;28;20240;-64
2022/03/14 06:51:52;;;;;;;3.50;2.30;;;11.10;53.50;;;;;;5049605;28;20660;-65
2022/03/14 06:54:20;;;;;;;4.10;2.53;;;11.40;52.30;;;;;;5048910;28;20271;-65
2022/03/14 06:56:47;;;;;;;3.50;2.50;;;11.90;51.50;;;;;;5047768;28;20206;-65
2022/03/14 06:59:14;;;;;;;3.35;2.17;;;12.10;49.60;;;;;;5051302;28;20247;-64
2022/03/14 07:01:41;;;;;;;3.17;1.88;;;12.50;49.40;;;;;;5049824;28;20637;-65
2022/03/14 07:04:08;;;;;;;3.05;2.05;;;12.90;48.70;;;;;;5051853;28;20190;-65
2022/03/14 07:06:35;;;;;;;2.25;1.40;;;13.50;47.50;;;;;;5051800;28;20249;-63
2022/03/14 07:09:03;;;;;;;6.00;1.92;;;13.80;45.20;;;;;;5050653;28;20202;-65
2022/03/14 07:11:31;;;;;;;2.50;1.40;;;13.80;45.70;;;;;;5050401;28;20190;-64
2022/03/14 07:13:58;;;;;;;2.60;1.65;;;14.60;44.90;;;;;;5050940;28;20186;-64
2022/03/14 07:16:25;;;;;;;2.65;1.58;;;16.00;41.10;;;;;;5050943;28;20202;-64
2022/03/14 07:18:52;;;;;;;2.70;1.50;;;17.50;40.00;;;;;;5050610;28;20198;-64
2022/03/14 07:21:19;;;;;;;4.40;1.10;;;19.20;38.20;;;;;;5051053;28;20189;-64
2022/03/14 07:23:46;;;;;;;2.23;1.20;;;21.00;35.20;;;;;;5050364;28;20924;-64
2022/03/14 07:26:14;;;;;;;2.07;1.10;;;22.60;32.10;;;;;;5053450;28;20562;-65
2022/03/14 07:28:43;;;;;;;1.70;0.97;;;23.80;28.40;;;;;;5052065;28;20825;-65
2022/03/14 07:31:10;;;;;;;2.20;1.23;;;24.20;26.70;;;;;;5049826;28;20441;-65
2022/03/14 07:33:37;;;;;;;4.80;1.37;;;24.40;26.30;;;;;;5049200;28;20457;-64
2022/03/14 07:36:04;;;;;;;2.03;1.10;;;24.50;26.50;;;;;;5053194;28;20536;-65
2022/03/14 07:38:31;;;;;;;3.07;1.00;;;24.30;24.10;;;;;;5048481;28;21096;-66
2022/03/14 07:40:58;;;;;;;1.57;0.73;;;23.40;24.40;;;;;;5048762;28;20956;-64
2022/03/14 07:43:25;;;;;;;1.90;0.87;;;22.30;24.60;;;;;;5049331;28;20488;-64
2022/03/14 07:45:54;;;;;;;1.87;0.80;;;21.30;25.20;;;;;;5050956;28;20490;-64
2022/03/14 07:48:21;;;;;;;2.00;1.13;;;20.40;26.00;;;;;;5049446;28;20439;-65
2022/03/14 07:50:49;;;;;;;1.60;0.70;;;19.70;26.70;;;;;;5053364;28;20453;-64
2022/03/14 07:53:16;;;;;;;2.33;1.20;;;19.60;29.90;;;;;;5059229;28;20832;-64
2022/03/14 07:55:48;;;;;;;1.73;0.73;;;22.00;31.10;;;;;;5052209;28;20491;-66
2022/03/14 07:58:15;;;;;;;3.50;0.90;;;25.20;28.00;;;;;;5057853;28;21906;-66
2022/03/14 08:00:42;;;;;;;1.57;0.67;;;27.80;25.00;;;;;;5058761;28;20464;-65
2022/03/14 08:03:11;;;;;;;2.50;1.13;;;29.90;22.00;;;;;;5053095;28;20810;-65
2022/03/14 08:05:38;;;;;;;2.40;1.10;;;31.70;20.50;;;;;;5056651;28;20440;-65
2022/03/14 08:08:05;;;;;;;3.43;1.30;;;33.20;18.40;;;;;;5055539;28;20483;-65
2022/03/14 08:10:32;;;;;;;5.00;1.20;;;34.50;17.00;;;;;;5054705;28;20518;-66
2022/03/14 08:12:59;;;;;;;1.60;0.67;;;35.40;15.50;;;;;;5061024;28;20539;-65
2022/03/14 08:15:28;;;;;;;1.97;0.80;;;36.40;14.90;;;;;;5052221;28;20443;-66
2022/03/14 08:17:56;;;;;;;3.63;1.10;;;37.00;13.40;;;;;;5057570;28;20435;-65
2022/03/14 08:20:26;;;;;;;3.40;0.70;;;37.40;12.50;;;;;;5054500;28;20440;-73
2022/03/14 08:22:53;;;;;;;2.80;0.73;;;37.50;12.10;;;;;;5053453;28;20444;-66
2022/03/14 08:25:21;;;;;;;1.70;0.73;;;38.20;12.30;;;;;;5053505;28;20444;-63
2022/03/14 08:27:48;;;;;;;2.13;0.90;;;39.00;11.40;;;;;;5056429;28;20867;-63
2022/03/14 08:30:15;;;;;;;1.70;0.70;;;39.40;11.10;;;;;;5049969;28;20437;-63
2022/03/14 08:32:43;;;;;;;5.30;0.70;;;40.10;10.70;;;;;;5057457;28;20479;-63
2022/03/14 08:35:11;;;;;;;3.50;1.20;;;40.70;9.80;;;;;;5050751;28;20513;-63
2022/03/14 08:37:41;;;;;;;2.03;1.00;;;40.90;9.90;;;;;;5053814;28;20854;-64
2022/03/14 08:40:10;;;;;;;1.67;0.70;;;41.40;10.00;;;;;;5054952;28;20436;-68
2022/03/14 08:42:37;;;;;;;2.50;1.00;;;41.90;9.10;;;;;;5050885;28;20718;-63
2022/03/14 08:45:06;;;;;;;1.70;0.70;;;42.20;9.10;;;;;;5051192;28;20467;-63
2022/03/14 08:47:33;;;;;;;1.83;1.00;;;42.80;8.50;;;;;;5055049;28;20440;-63
2022/03/14 08:50:02;;;;;;;2.47;1.20;;;43.20;8.00;;;;;;5051619;28;20440;-63
2022/03/14 08:52:29;;;;;;;2.10;1.40;;;43.00;7.70;;;;;;5055652;28;20448;-63
2022/03/14 08:54:58;;;;;;;2.10;1.20;;;43.30;8.00;;;;;;5055006;28;20453;-64
2022/03/14 08:57:25;;;;;;;3.20;1.50;;;43.80;7.50;;;;;;5055651;28;20480;-64
2022/03/14 08:59:54;;;;;;;7.30;1.13;;;43.40;7.30;;;;;;5058743;28;20888;-65
2022/03/14 09:02:21;;;;;;;2.70;1.50;;;43.50;7.60;;;;;;5056462;28;20445;-63
2022/03/14 09:04:47;;;;;;;4.03;1.17;;;42.90;7.30;;;;;;5057624;28;20498;-63
2022/03/14 09:07:26;;;;;;;2.00;1.10;;;43.40;7.80;;;;;;5057986;28;20448;-63
2022/03/14 09:09:53;;;;;;;2.47;1.70;;;43.10;6.90;;;;;;5053380;28;21000;-63
2022/03/14 09:12:21;;;;;;;2.60;1.67;;;42.60;7.10;;;;;;5053860;28;20449;-64
2022/03/14 09:14:50;;;;;;;2.40;1.20;;;42.80;7.70;;;;;;5055377;28;20433;-63
2022/03/14 09:17:17;;;;;;;2.80;1.37;;;43.90;7.40;;;;;;5052395;28;20488;-64
2022/03/14 09:19:44;;;;;;;3.00;2.10;;;44.90;6.90;;;;;;5056518;28;20458;-63
2022/03/14 09:22:12;;;;;;;3.30;1.60;;;45.20;6.60;;;;;;5053993;28;20440;-64
2022/03/14 09:24:39;;;;;;;2.27;1.37;;;45.20;6.30;;;;;;5052837;28;20475;-63
2022/03/14 09:27:07;;;;;;;3.40;1.37;;;45.70;6.60;;;;;;5054987;28;20449;-63
2022/03/14 09:29:35;;;;;;;2.97;1.10;;;46.60;6.10;;;;;;5052181;28;20512;-63
2022/03/14 09:32:03;;;;;;;2.00;1.13;;;46.70;5.40;;;;;;5050545;28;20449;-63
2022/03/14 09:34:31;;;;;;;2.10;1.20;;;46.60;5.60;;;;;;5054533;28;20444;-63
2022/03/14 09:36:58;;;;;;;1.80;0.90;;;47.30;5.50;;;;;;5051565;28;20490;-63
2022/03/14 09:39:25;;;;;;;2.00;1.00;;;47.80;5.40;;;;;;5053982;28;20519;-64
2022/03/14 09:41:53;;;;;;;2.60;1.30;;;48.20;5.10;;;;;;5050465;28;20436;-63
2022/03/14 09:44:21;;;;;;;2.20;1.13;;;48.60;5.00;;;;;;5052498;28;20491;-63
2022/03/14 09:46:50;;;;;;;2.20;1.07;;;49.10;5.00;;;;;;5054317;28;20531;-63
2022/03/14 09:49:19;;;;;;;2.30;1.70;;;49.70;5.00;;;;;;5052454;28;21793;-63
2022/03/14 09:51:48;;;;;;;3.97;1.00;;;50.20;4.70;;;;;;5053995;28;20440;-63
2022/03/14 09:54:15;;;;;;;1.87;1.30;;;50.80;4.50;;;;;;5052837;28;20822;-64
2022/03/14 09:56:43;;;;;;;2.00;1.10;;;51.10;4.40;;;;;;5051138;28;20437;-64
2022/03/14 09:59:13;;;;;;;2.03;1.53;;;51.60;4.40;;;;;;5053688;28;20455;-64
2022/03/14 10:01:40;;;;;;;3.20;2.67;;;51.80;3.40;;;;;;5052571;28;20531;-64
2022/03/14 10:04:10;;;;;;;7.20;6.50;;;51.20;3.50;;;;;;5051541;28;20469;-64
2022/03/14 10:06:40;;;;;;;3.30;2.90;;;50.80;3.80;;;;;;5049167;28;20494;-63
2022/03/14 10:09:07;;;;;;;4.90;2.87;;;50.30;3.50;;;;;;5052472;28;20453;-64
2022/03/14 10:11:35;;;;;;;2.20;1.30;;;50.30;4.00;;;;;;5052124;28;20919;-63
2022/03/14 10:14:04;;;;;;;5.43;1.13;;;50.90;3.90;;;;;;5050726;28;20528;-63
2022/03/14 10:16:31;;;;;;;1.90;1.10;;;51.50;4.20;;;;;;5051360;28;20437;-64
2022/03/14 10:19:01;;;;;;;2.03;1.10;;;51.90;4.00;;;;;;5050650;28;20448;-64
2022/03/14 10:21:34;;;;;;;2.10;1.23;;;52.30;3.60;;;;;;5050349;28;20870;-64
2022/03/14 10:24:04;;;;;;;3.57;1.37;;;52.80;3.70;;;;;;5052448;28;20490;-65
2022/03/14 10:26:33;;;;;;;2.70;1.47;;;53.20;3.10;;;;;;5050119;28;20534;-64
2022/03/14 10:29:01;;;;;;;1.80;0.90;;;53.40;3.40;;;;;;5050460;28;20448;-64
2022/03/14 10:31:30;;;;;;;1.90;1.00;;;53.80;3.40;;;;;;5054232;28;20445;-64
2022/03/14 10:34:04;;;;;;;3.23;1.50;;;54.20;3.20;;;;;;5053131;28;20851;-64
2022/03/14 10:36:49;;;;;;;1.93;1.20;;;54.50;2.80;;;;;;5056460;28;20533;-63
2022/03/14 10:39:21;;;;;;;2.77;1.30;;;54.70;2.90;;;;;;5053840;28;20441;-65
2022/03/14 10:42:02;;;;;;;3.13;1.47;;;54.50;2.70;;;;;;5060883;28;20865;-64
2022/03/14 10:44:29;;;;;;;2.10;1.40;;;54.30;2.90;;;;;;5057468;28;20462;-64
2022/03/14 10:46:59;;;;;;;3.10;1.60;;;54.60;2.80;;;;;;5055996;28;20458;-64
2022/03/14 10:49:31;;;;;;;2.60;1.40;;;54.80;2.50;;;;;;5052833;28;20958;-63
2022/03/14 10:52:01;;;;;;;2.20;1.57;;;54.80;2.30;;;;;;5054491;28;20452;-64
2022/03/14 10:54:29;;;;;;;2.10;1.30;;;54.80;2.50;;;;;;5054150;28;20443;-65
2022/03/14 10:57:07;;;;;;;2.73;1.80;;;55.00;2.50;;;;;;5054386;28;20437;-65
2022/03/14 10:59:40;;;;;;;2.00;1.33;;;55.10;2.30;;;;;;5053755;28;20443;-68
2022/03/14 11:02:08;;;;;;;2.70;1.27;;;54.80;2.00;;;;;;5055667;28;21019;-64
2022/03/14 11:04:44;;;;;;;1.90;1.33;;;54.00;2.20;;;;;;5059948;28;20497;-63
2022/03/14 11:07:13;;;;;;;2.40;1.80;;;54.10;3.10;;;;;;5050805;28;20970;-65
2022/03/14 11:09:42;;;;;;;2.53;2.13;;;54.50;2.70;;;;;;5055731;28;20433;-64
2022/03/14 11:12:11;;;;;;;2.20;1.53;;;54.80;2.70;;;;;;5057928;28;20854;-65
2022/03/14 11:14:38;;;;;;;2.23;1.57;;;54.90;2.40;;;;;;5056357;28;20440;-64
2022/03/14 11:17:17;;;;;;;2.13;1.40;;;54.50;2.20;;;;;;5045635;28;20456;-63
2022/03/14 11:19:45;;;;;;;2.30;1.60;;;53.80;1.90;;;;;;5057443;28;20443;-63
2022/03/14 11:22:15;;;;;;;2.57;1.83;;;51.20;2.50;;;;;;5054520;28;20460;-63
2022/03/14 11:24:44;;;;;;;2.40;1.70;;;51.20;3.00;;;;;;5054180;28;20467;-63
2022/03/14 11:27:18;;;;;;;2.40;1.80;;;52.20;3.20;;;;;;5052783;28;20444;-64
2022/03/14 11:29:46;;;;;;;3.77;2.13;;;53.20;2.90;;;;;;5051826;28;20452;-63
2022/03/14 11:32:16;;;;;;;2.50;1.50;;;53.70;2.60;;;;;;5052342;28;20486;-64
2022/03/14 11:34:44;;;;;;;1.87;1.40;;;53.80;2.70;;;;;;5054778;28;20526;-64
2022/03/14 11:37:14;;;;;;;2.40;1.40;;;53.70;3.10;;;;;;5050290;28;20433;-63
2022/03/14 11:39:41;;;;;;;2.87;1.13;;;54.10;2.70;;;;;;5052956;28;20902;-63
2022/03/14 11:42:11;;;;;;;1.80;1.10;;;54.20;2.60;;;;;;5051124;28;20448;-64
2022/03/14 11:44:40;;;;;;;2.07;1.33;;;54.10;2.60;;;;;;5055029;28;20814;-64
2022/03/14 11:47:10;;;;;;;2.30;1.40;;;54.40;2.50;;;;;;5054294;28;20451;-63
2022/03/14 11:49:38;;;;;;;2.30;1.50;;;54.30;2.30;;;;;;5048215;28;20449;-65
2022/03/14 11:52:10;;;;;;;2.00;1.50;;;54.30;2.20;;;;;;5053072;28;20816;-63
2022/03/14 11:54:41;;;;;;;2.10;1.63;;;54.40;2.60;;;;;;5055789;28;21124;-63
2022/03/14 11:57:09;;;;;;;1.90;1.40;;;54.60;2.50;;;;;;5048564;28;20455;-65
2022/03/14 11:59:37;;;;;;;2.00;1.50;;;54.70;2.40;;;;;;5051608;28;20433;-64
2022/03/14 12:02:06;;;;;;;7.20;1.67;;;54.20;2.40;;;;;;5052067;28;20522;-63
2022/03/14 12:04:36;;;;;;;3.37;1.50;;;52.00;1.80;;;;;;5047860;28;20931;-64
2022/03/14 12:07:05;;;;;;;2.73;1.90;;;47.90;2.00;;;;;;5046393;28;20535;-64
2022/03/14 12:09:48;;;;;;;2.70;1.80;;;45.20;3.80;;;;;;5050613;28;20487;-63
2022/03/14 12:12:34;;;;;;;2.10;1.20;;;46.00;4.60;;;;;;5046585;28;20479;-64
2022/03/14 12:15:02;;;;;;;2.10;1.20;;;47.50;4.30;;;;;;5048326;28;20441;-63
2022/03/14 12:17:32;;;;;;;4.00;1.43;;;48.50;3.90;;;;;;5050549;28;20494;-63
2022/03/14 12:20:03;;;;;;;2.20;1.50;;;49.10;3.80;;;;;;5047812;28;20445;-63
2022/03/14 12:22:36;;;;;;;2.10;1.10;;;49.70;3.60;;;;;;5050282;28;20447;-63
2022/03/14 12:25:06;;;;;;;2.10;1.53;;;50.20;3.80;;;;;;5049459;28;20481;-64
2022/03/14 12:27:36;;;;;;;2.20;1.20;;;50.80;3.20;;;;;;5050478;28;20448;-63
2022/03/14 12:30:06;;;;;;;2.10;1.60;;;50.70;3.30;;;;;;5050096;28;20797;-63
2022/03/14 12:32:36;;;;;;;2.13;1.37;;;50.10;3.20;;;;;;5052697;28;20567;-63
2022/03/14 12:35:07;;;;;;;2.23;1.77;;;49.80;3.50;;;;;;5054110;28;20433;-68
2022/03/14 12:37:47;;;;;;;3.50;1.57;;;50.00;3.40;;;;;;5055116;28;20435;-63
2022/03/14 12:40:43;;;;;;;1.83;1.00;;;50.20;3.10;;;;;;5056925;28;20528;-64
2022/03/14 12:43:22;;;;;;;2.00;1.20;;;49.90;3.30;;;;;;5056786;28;20502;-63
2022/03/14 12:45:50;;;;;;;2.00;1.30;;;49.90;3.30;;;;;;5058797;28;20432;-63
2022/03/14 12:48:20;;;;;;;4.53;1.53;;;50.00;3.30;;;;;;5059546;28;20509;-64
2022/03/14 12:54:09;;;;;;;2.00;1.20;;;49.90;3.50;;;;;;5059350;28;20463;-63
2022/03/14 12:56:39;;;;;;;3.90;1.50;;;49.30;3.20;;;;;;5054334;28;20440;-63
2022/03/14 12:59:10;;;;;;;3.53;1.37;;;48.60;3.50;;;;;;5058878;28;20456;-63
2022/03/14 13:01:40;;;;;;;3.20;1.63;;;48.30;3.90;;;;;;5057997;28;20428;-64